createdAt,value
2017-06-09T00:01:00.117Z,0
2017-06-09T00:02:09.741Z,0
2017-06-09T00:03:19.669Z,0
2017-06-09T00:04:29.886Z,0
2017-06-09T00:05:40.123Z,0
2017-06-09T00:06:50.040Z,0
2017-06-09T00:07:59.650Z,0
2017-06-09T00:09:09.908Z,0
2017-06-09T00:10:19.524Z,0
2017-06-09T00:11:29.968Z,0
2017-06-09T00:12:39.897Z,0
2017-06-09T00:13:49.818Z,0
2017-06-09T00:14:59.774Z,0
2017-06-09T00:16:09.406Z,0
2017-06-09T00:17:19.674Z,0
2017-06-09T00:18:29.905Z,0
2017-06-09T00:19:39.523Z,0
2017-06-09T00:20:48.825Z,0
2017-06-09T00:21:58.434Z,0
2017-06-09T00:23:08.047Z,0
2017-06-09T00:24:17.656Z,0
2017-06-09T00:25:27.579Z,0
2017-06-09T00:26:37.497Z,0
2017-06-09T00:27:46.802Z,0
2017-06-09T00:28:57.123Z,0
2017-06-09T00:30:07.039Z,0
2017-06-09T00:31:16.651Z,0
2017-06-09T00:32:26.582Z,0
2017-06-09T00:33:36.505Z,0
2017-06-09T00:34:46.736Z,0
2017-06-09T00:35:56.349Z,0
2017-06-09T00:37:06.268Z,0
2017-06-09T00:38:16.189Z,0
2017-06-09T00:39:26.105Z,0
2017-06-09T00:40:35.746Z,0
2017-06-09T00:41:45.662Z,0
2017-06-09T00:42:55.616Z,0
2017-06-09T00:44:05.849Z,0
2017-06-09T00:45:15.162Z,0
2017-06-09T00:46:25.382Z,0
2017-06-09T00:47:35.632Z,0
2017-06-09T00:48:45.877Z,0
2017-06-09T00:49:55.808Z,0
2017-06-09T00:51:06.032Z,0
2017-06-09T00:52:15.946Z,0
2017-06-09T00:53:25.555Z,0
2017-06-09T00:54:35.172Z,0
2017-06-09T00:55:45.404Z,0
2017-06-09T00:56:55.628Z,0
2017-06-09T00:58:05.237Z,0
2017-06-09T00:59:14.860Z,0
2017-06-09T01:00:24.165Z,0
2017-06-09T01:01:34.082Z,0
2017-06-09T01:02:43.995Z,0
2017-06-09T01:03:53.903Z,0
2017-06-09T01:05:03.845Z,0
2017-06-09T01:06:14.085Z,0
2017-06-09T01:07:23.995Z,0
2017-06-09T01:08:34.229Z,0
2017-06-09T01:09:43.850Z,0
2017-06-09T01:10:53.458Z,0
2017-06-09T01:12:03.385Z,0
2017-06-09T01:13:12.990Z,0
2017-06-09T01:14:22.616Z,0
2017-06-09T01:15:32.859Z,0
2017-06-09T01:16:43.090Z,0
2017-06-09T01:17:53.311Z,0
2017-06-09T01:19:02.923Z,0
2017-06-09T01:20:12.246Z,0
2017-06-09T01:21:21.866Z,0
2017-06-09T01:22:31.784Z,0
2017-06-09T01:23:41.432Z,0
2017-06-09T01:24:51.355Z,0
2017-06-09T01:26:01.281Z,0
2017-06-09T01:27:11.514Z,0
2017-06-09T01:28:21.135Z,0
2017-06-09T01:29:30.744Z,0
2017-06-09T01:30:40.681Z,0
2017-06-09T01:31:50.602Z,0
2017-06-09T01:32:59.911Z,0
2017-06-09T01:34:09.527Z,0
2017-06-09T01:35:19.443Z,0
2017-06-09T01:36:29.375Z,0
2017-06-09T01:37:38.989Z,0
2017-06-09T01:38:48.601Z,0
2017-06-09T01:39:58.219Z,0
2017-06-09T01:41:08.442Z,0
2017-06-09T01:42:18.369Z,0
2017-06-09T01:43:28.301Z,0
2017-06-09T01:44:37.919Z,0
2017-06-09T01:45:47.841Z,0
2017-06-09T01:46:57.479Z,0
2017-06-09T01:48:07.402Z,0
2017-06-09T01:49:17.014Z,0
2017-06-09T01:50:27.056Z,0
2017-06-09T01:51:37.309Z,0
2017-06-09T01:52:47.561Z,0
2017-06-09T01:53:57.779Z,0
2017-06-09T01:55:07.086Z,0
2017-06-09T01:56:17.019Z,0
2017-06-09T01:57:27.244Z,0
2017-06-09T01:58:37.472Z,0
2017-06-09T01:59:47.413Z,0
2017-06-09T02:00:57.331Z,0
2017-06-09T02:02:06.967Z,0
2017-06-09T02:03:17.190Z,0
2017-06-09T02:04:26.791Z,0
2017-06-09T02:05:36.733Z,0
2017-06-09T02:06:47.062Z,0
2017-06-09T02:07:56.975Z,0
2017-06-09T02:09:07.242Z,0
2017-06-09T02:10:17.469Z,0
2017-06-09T02:11:27.381Z,0
2017-06-09T02:12:36.688Z,0
2017-06-09T02:13:46.665Z,0
2017-06-09T02:14:55.964Z,0
2017-06-09T02:16:05.569Z,0
2017-06-09T02:17:14.871Z,0
2017-06-09T02:18:24.484Z,0
2017-06-09T02:19:34.701Z,0
2017-06-09T02:20:44.000Z,0
2017-06-09T02:21:53.920Z,0
2017-06-09T02:23:03.529Z,0
2017-06-09T02:24:13.441Z,0
2017-06-09T02:25:23.357Z,0
2017-06-09T02:26:32.970Z,0
2017-06-09T02:27:42.895Z,0
2017-06-09T02:28:52.811Z,0
2017-06-09T02:30:02.740Z,0
2017-06-09T02:31:12.998Z,0
2017-06-09T02:32:22.299Z,0
2017-06-09T02:33:32.258Z,0
2017-06-09T02:34:42.484Z,0
2017-06-09T02:35:52.397Z,0
2017-06-09T02:37:02.316Z,0
2017-06-09T02:38:12.237Z,0
2017-06-09T02:39:22.149Z,0
2017-06-09T02:40:31.758Z,0
2017-06-09T02:41:42.034Z,0
2017-06-09T02:42:51.656Z,0
2017-06-09T02:44:01.290Z,0
2017-06-09T02:45:11.205Z,0
2017-06-09T02:46:20.809Z,0
2017-06-09T02:47:30.428Z,0
2017-06-09T02:48:40.075Z,0
2017-06-09T02:49:50.302Z,0
2017-06-09T02:50:59.921Z,0
2017-06-09T02:52:09.224Z,0
2017-06-09T02:53:18.832Z,0
2017-06-09T02:54:28.155Z,0
2017-06-09T02:55:38.083Z,0
2017-06-09T02:56:48.328Z,0
2017-06-09T02:57:57.955Z,0
2017-06-09T02:59:07.895Z,0
2017-06-09T03:00:17.819Z,0
2017-06-09T03:01:27.748Z,0
2017-06-09T03:02:37.975Z,0
2017-06-09T03:03:47.905Z,0
2017-06-09T03:04:57.537Z,0
2017-06-09T03:06:07.476Z,0
2017-06-09T03:07:16.784Z,0
2017-06-09T03:08:26.743Z,0
2017-06-09T03:09:36.050Z,0
2017-06-09T03:10:45.985Z,0
2017-06-09T03:11:55.900Z,0
2017-06-09T03:13:05.821Z,0
2017-06-09T03:14:15.751Z,0
2017-06-09T03:15:25.980Z,0
2017-06-09T03:16:35.923Z,0
2017-06-09T03:17:45.873Z,0
2017-06-09T03:18:56.096Z,0
2017-06-09T03:20:05.719Z,0
2017-06-09T03:21:15.015Z,0
2017-06-09T03:22:24.624Z,0
2017-06-09T03:23:34.547Z,0
2017-06-09T03:24:44.154Z,0
2017-06-09T03:25:54.039Z,0
2017-06-09T03:27:03.671Z,0
2017-06-09T03:28:13.292Z,0
2017-06-09T03:29:22.594Z,0
2017-06-09T03:30:32.507Z,0
2017-06-09T03:31:42.416Z,0
2017-06-09T03:32:51.106Z,0
2017-06-09T03:34:01.038Z,0
2017-06-09T03:35:10.964Z,0
2017-06-09T03:36:21.221Z,0
2017-06-09T03:37:31.142Z,0
2017-06-09T03:38:41.078Z,0
2017-06-09T03:39:50.689Z,0
2017-06-09T03:40:59.999Z,0
2017-06-09T03:42:10.242Z,0
2017-06-09T03:43:20.198Z,0
2017-06-09T03:44:29.809Z,0
2017-06-09T03:45:39.435Z,0
2017-06-09T03:46:48.760Z,0
2017-06-09T03:47:58.679Z,0
2017-06-09T03:49:08.961Z,0
2017-06-09T03:50:18.569Z,0
2017-06-09T03:51:28.481Z,0
2017-06-09T03:52:38.404Z,0
2017-06-09T03:53:48.007Z,0
2017-06-09T03:54:57.609Z,0
2017-06-09T03:56:07.873Z,0
2017-06-09T03:57:17.478Z,0
2017-06-09T03:58:27.692Z,0
2017-06-09T03:59:37.603Z,0
2017-06-09T04:00:47.536Z,0
2017-06-09T04:01:57.773Z,0
2017-06-09T04:03:07.387Z,5
2017-06-09T04:04:17.421Z,5
2017-06-09T04:05:26.750Z,5
2017-06-09T04:06:36.378Z,5
2017-06-09T04:07:45.367Z,5
2017-06-09T04:08:55.290Z,5
2017-06-09T04:10:05.208Z,5
2017-06-09T04:11:14.526Z,5
2017-06-09T04:12:24.448Z,5
2017-06-09T04:13:34.064Z,5
2017-06-09T04:14:43.736Z,5
2017-06-09T04:15:53.686Z,5
2017-06-09T04:17:03.623Z,5
2017-06-09T04:18:13.628Z,5
2017-06-09T04:19:23.551Z,5
2017-06-09T04:20:33.793Z,5
2017-06-09T04:21:43.758Z,5
2017-06-09T04:22:53.386Z,5
2017-06-09T04:24:02.709Z,5
2017-06-09T04:25:12.336Z,5
2017-06-09T04:26:22.568Z,5
2017-06-09T04:27:32.196Z,10
2017-06-09T04:28:41.805Z,10
2017-06-09T04:29:52.033Z,10
2017-06-09T04:31:01.649Z,10
2017-06-09T04:32:11.583Z,5
2017-06-09T04:33:20.605Z,5
2017-06-09T04:34:30.529Z,5
2017-06-09T04:35:40.771Z,5
2017-06-09T04:36:50.744Z,10
2017-06-09T04:38:00.358Z,10
2017-06-09T04:39:10.604Z,10
2017-06-09T04:40:20.550Z,10
2017-06-09T04:41:30.801Z,10
2017-06-09T04:42:40.121Z,10
2017-06-09T04:43:50.371Z,10
2017-06-09T04:44:59.994Z,10
2017-06-09T04:46:10.219Z,10
2017-06-09T04:47:19.839Z,10
2017-06-09T04:48:29.797Z,10
2017-06-09T04:49:39.731Z,10
2017-06-09T04:50:48.728Z,10
2017-06-09T04:51:58.342Z,10
2017-06-09T04:53:08.273Z,10
2017-06-09T04:54:18.190Z,10
2017-06-09T04:55:28.118Z,10
2017-06-09T04:56:38.031Z,10
2017-06-09T04:57:47.961Z,5
2017-06-09T04:58:58.197Z,5
2017-06-09T05:00:07.836Z,5
2017-06-09T05:01:17.856Z,10
2017-06-09T05:02:27.805Z,10
2017-06-09T05:03:37.430Z,10
2017-06-09T05:04:47.342Z,10
2017-06-09T05:05:57.258Z,15
2017-06-09T05:07:07.481Z,15
2017-06-09T05:08:17.232Z,20
2017-06-09T05:09:27.478Z,20
2017-06-09T05:10:37.445Z,25
2017-06-09T05:11:47.670Z,25
2017-06-09T05:12:56.986Z,30
2017-06-09T05:14:07.275Z,30
2017-06-09T05:16:58.312Z,25
2017-06-09T05:18:08.563Z,20
2017-06-09T05:19:18.326Z,30
2017-06-09T05:20:28.249Z,25
2017-06-09T05:21:37.857Z,30
2017-06-09T05:22:48.103Z,50
2017-06-09T05:23:57.419Z,45
2017-06-09T05:25:07.496Z,40
2017-06-09T05:26:16.792Z,35
2017-06-09T05:27:26.392Z,30
2017-06-09T05:28:36.002Z,50
2017-06-09T05:29:45.607Z,55
2017-06-09T05:30:55.638Z,55
2017-06-09T05:32:04.932Z,55
2017-06-09T05:33:14.552Z,60
2017-06-09T05:34:24.775Z,45
2017-06-09T05:35:34.693Z,45
2017-06-09T05:36:44.715Z,35
2017-06-09T05:37:54.338Z,15
2017-06-09T05:39:03.364Z,10
2017-06-09T05:40:13.602Z,10
2017-06-09T05:41:23.324Z,10
2017-06-09T05:42:32.778Z,10
2017-06-09T05:43:43.022Z,15
2017-06-09T05:44:52.985Z,20
2017-06-09T05:46:02.908Z,20
2017-06-09T05:47:13.164Z,20
2017-06-09T05:48:23.487Z,20
2017-06-09T05:49:33.111Z,20
2017-06-09T05:50:43.346Z,25
2017-06-09T05:51:52.659Z,25
2017-06-09T05:53:02.266Z,25
2017-06-09T05:54:11.670Z,30
2017-06-09T05:55:21.267Z,30
2017-06-09T05:56:31.537Z,30
2017-06-09T05:57:41.450Z,25
2017-06-09T05:58:51.062Z,25
2017-06-09T06:00:00.824Z,25
2017-06-09T06:01:11.064Z,20
2017-06-09T06:02:21.324Z,15
2017-06-09T06:03:31.532Z,15
2017-06-09T06:04:41.752Z,15
2017-06-09T06:05:51.803Z,15
2017-06-09T06:07:01.452Z,15
2017-06-09T06:08:11.059Z,15
2017-06-09T06:09:20.697Z,15
2017-06-09T06:10:30.629Z,15
2017-06-09T06:11:40.705Z,15
2017-06-09T06:12:50.343Z,15
2017-06-09T06:13:59.943Z,15
2017-06-09T06:15:09.265Z,15
2017-06-09T06:16:19.503Z,15
2017-06-09T06:17:29.529Z,15
2017-06-09T06:18:39.467Z,15
2017-06-09T06:19:49.071Z,15
2017-06-09T06:20:59.299Z,15
2017-06-09T06:22:08.613Z,15
2017-06-09T06:23:18.160Z,15
2017-06-09T06:24:27.477Z,15
2017-06-09T06:25:37.707Z,10
2017-06-09T06:26:47.317Z,10
2017-06-09T06:27:56.629Z,10
2017-06-09T06:29:06.099Z,15
2017-06-09T06:30:16.368Z,15
2017-06-09T06:31:26.299Z,15
2017-06-09T06:32:36.240Z,15
2017-06-09T06:33:46.466Z,15
2017-06-09T06:34:56.126Z,15
2017-06-09T06:36:05.438Z,10
2017-06-09T06:37:15.351Z,10
2017-06-09T06:38:25.268Z,15
2017-06-09T06:39:34.582Z,15
2017-06-09T06:40:44.655Z,15
2017-06-09T06:41:54.595Z,15
2017-06-09T06:43:04.523Z,15
2017-06-09T06:44:13.819Z,15
2017-06-09T06:45:23.435Z,15
2017-06-09T06:46:33.501Z,15
2017-06-09T06:47:43.116Z,15
2017-06-09T06:48:52.769Z,15
2017-06-09T06:50:02.379Z,15
2017-06-09T06:51:12.608Z,15
2017-06-09T06:52:22.938Z,15
2017-06-09T06:53:32.550Z,15
2017-06-09T06:54:41.861Z,15
2017-06-09T06:55:52.091Z,15
2017-06-09T06:57:02.309Z,15
2017-06-09T06:58:11.410Z,15
2017-06-09T06:59:21.020Z,15
2017-06-09T07:00:30.952Z,10
2017-06-09T07:01:40.559Z,10
2017-06-09T07:02:49.596Z,10
2017-06-09T07:03:59.373Z,10
2017-06-09T07:05:09.325Z,10
2017-06-09T07:06:19.558Z,10
2017-06-09T07:07:29.784Z,10
2017-06-09T07:08:39.707Z,15
2017-06-09T07:09:50.084Z,10
2017-06-09T07:11:00.032Z,10
2017-06-09T07:12:09.670Z,10
2017-06-09T07:13:19.594Z,10
2017-06-09T07:14:29.203Z,10
2017-06-09T07:15:38.828Z,10
2017-06-09T07:16:48.142Z,10
2017-06-09T07:17:58.395Z,5
2017-06-09T07:19:08.627Z,5
2017-06-09T07:20:18.546Z,5
2017-06-09T07:21:28.363Z,5
2017-06-09T07:22:37.666Z,5
2017-06-09T07:23:47.619Z,5
2017-06-09T07:24:57.239Z,5
2017-06-09T07:26:06.868Z,5
2017-06-09T07:27:16.641Z,10
2017-06-09T07:28:26.567Z,5
2017-06-09T07:29:36.804Z,10
2017-06-09T07:30:46.133Z,10
2017-06-09T07:31:56.415Z,10
2017-06-09T07:33:05.747Z,10
2017-06-09T07:34:16.027Z,15
2017-06-09T07:35:25.957Z,15
2017-06-09T07:36:35.589Z,15
2017-06-09T07:37:45.518Z,15
2017-06-09T07:38:55.189Z,15
2017-06-09T07:40:05.147Z,15
2017-06-09T07:41:14.757Z,15
2017-06-09T07:42:24.991Z,15
2017-06-09T07:43:34.296Z,15
2017-06-09T07:44:44.360Z,20
2017-06-09T07:45:53.970Z,20
2017-06-09T07:47:03.909Z,20
2017-06-09T07:48:13.897Z,15
2017-06-09T07:49:23.822Z,15
2017-06-09T07:50:34.102Z,15
2017-06-09T07:51:43.711Z,15
2017-06-09T07:52:53.625Z,15
2017-06-09T07:54:03.558Z,20
2017-06-09T07:55:13.795Z,15
2017-06-09T07:56:23.428Z,15
2017-06-09T07:57:33.040Z,10
2017-06-09T07:58:42.652Z,10
2017-06-09T07:59:52.267Z,10
2017-06-09T08:01:01.885Z,5
2017-06-09T08:02:11.904Z,5
2017-06-09T08:03:21.208Z,10
2017-06-09T08:04:30.827Z,10
2017-06-09T08:05:40.436Z,10
2017-06-09T08:06:50.661Z,10
2017-06-09T08:08:01.232Z,10
2017-06-09T08:09:11.177Z,15
2017-06-09T08:10:21.105Z,15
2017-06-09T08:11:31.350Z,10
2017-06-09T08:12:41.280Z,10
2017-06-09T08:13:50.993Z,10
2017-06-09T08:15:00.609Z,5
2017-06-09T08:16:10.536Z,5
2017-06-09T08:17:20.466Z,5
2017-06-09T08:18:30.071Z,5
2017-06-09T08:19:40.099Z,0
2017-06-09T08:20:50.024Z,0
2017-06-09T08:22:00.263Z,5
2017-06-09T08:23:10.485Z,5
2017-06-09T08:24:21.102Z,5
2017-06-09T08:25:30.890Z,5
2017-06-09T08:26:40.193Z,5
2017-06-09T08:27:50.141Z,5
2017-06-09T08:29:00.064Z,5
2017-06-09T08:30:09.677Z,5
2017-06-09T08:31:19.699Z,0
2017-06-09T08:32:29.332Z,0
2017-06-09T08:33:38.338Z,0
2017-06-09T08:34:48.563Z,0
2017-06-09T08:35:58.801Z,0
2017-06-09T08:37:08.477Z,0
2017-06-09T08:38:18.092Z,5
2017-06-09T08:39:28.316Z,5
2017-06-09T08:40:37.928Z,5
2017-06-09T08:41:47.240Z,5
2017-06-09T08:42:56.389Z,5
2017-06-09T08:44:05.691Z,5
2017-06-09T08:45:15.619Z,5
2017-06-09T08:46:25.558Z,5
2017-06-09T08:47:35.783Z,5
2017-06-09T08:48:45.233Z,5
2017-06-09T08:49:54.843Z,5
2017-06-09T08:51:04.769Z,5
2017-06-09T08:52:15.058Z,5
2017-06-09T08:53:25.297Z,5
2017-06-09T08:54:35.375Z,10
2017-06-09T08:55:45.299Z,15
2017-06-09T08:56:55.239Z,10
2017-06-09T08:58:05.158Z,10
2017-06-09T08:59:14.770Z,10
2017-06-09T09:00:25.067Z,10
2017-06-09T09:01:35.002Z,10
2017-06-09T09:02:44.923Z,10
2017-06-09T09:03:55.147Z,10
2017-06-09T09:05:05.369Z,10
2017-06-09T09:06:15.591Z,10
2017-06-09T09:07:25.516Z,10
2017-06-09T09:08:35.454Z,5
2017-06-09T09:09:45.380Z,5
2017-06-09T09:10:55.005Z,5
2017-06-09T09:12:05.077Z,5
2017-06-09T09:13:14.396Z,5
2017-06-09T09:14:24.311Z,5
2017-06-09T09:15:34.269Z,0
2017-06-09T09:16:44.220Z,0
2017-06-09T09:17:53.931Z,0
2017-06-09T09:19:03.868Z,0
2017-06-09T09:20:14.115Z,0
2017-06-09T09:21:24.377Z,0
2017-06-09T09:22:34.315Z,0
2017-06-09T09:23:44.279Z,5
2017-06-09T09:24:53.915Z,5
2017-06-09T09:26:03.841Z,0
2017-06-09T09:27:13.503Z,0
2017-06-09T09:28:23.728Z,0
2017-06-09T09:29:33.500Z,0
2017-06-09T09:30:43.424Z,0
2017-06-09T09:31:53.041Z,5
2017-06-09T09:33:02.995Z,5
2017-06-09T09:34:12.625Z,5
2017-06-09T09:35:22.284Z,5
2017-06-09T09:36:32.514Z,5
2017-06-09T09:37:42.155Z,0
2017-06-09T09:38:51.470Z,0
2017-06-09T09:40:01.099Z,0
2017-06-09T09:41:10.853Z,0
2017-06-09T09:42:20.468Z,0
2017-06-09T09:43:30.405Z,0
2017-06-09T09:44:40.622Z,0
2017-06-09T09:45:50.538Z,0
2017-06-09T09:47:00.504Z,0
2017-06-09T09:48:09.814Z,5
2017-06-09T09:49:19.419Z,5
2017-06-09T09:50:29.678Z,5
2017-06-09T09:51:39.614Z,5
2017-06-09T09:52:49.371Z,5
2017-06-09T09:53:59.316Z,5
2017-06-09T09:55:08.945Z,5
2017-06-09T09:56:18.943Z,5
2017-06-09T09:57:28.868Z,5
2017-06-09T09:58:38.954Z,5
2017-06-09T09:59:48.883Z,5
2017-06-09T10:00:58.806Z,5
2017-06-09T10:02:08.436Z,5
2017-06-09T10:03:18.666Z,5
2017-06-09T10:04:28.133Z,5
2017-06-09T10:05:38.063Z,5
2017-06-09T10:06:47.984Z,5
2017-06-09T10:07:57.916Z,5
2017-06-09T10:09:08.172Z,5
2017-06-09T10:10:18.393Z,5
2017-06-09T10:11:28.631Z,5
2017-06-09T10:12:38.568Z,5
2017-06-09T10:13:48.509Z,5
2017-06-09T10:14:58.445Z,5
2017-06-09T10:16:08.672Z,5
2017-06-09T10:17:18.598Z,5
2017-06-09T10:18:28.516Z,5
2017-06-09T10:19:38.452Z,5
2017-06-09T10:20:48.698Z,5
2017-06-09T10:21:58.110Z,5
2017-06-09T10:23:07.421Z,10
2017-06-09T10:24:17.651Z,10
2017-06-09T10:25:26.961Z,10
2017-06-09T10:26:36.584Z,10
2017-06-09T10:27:46.675Z,15
2017-06-09T10:28:56.325Z,15
2017-06-09T10:30:05.970Z,20
2017-06-09T10:31:16.189Z,20
2017-06-09T10:32:25.824Z,20
2017-06-09T10:33:35.759Z,20
2017-06-09T10:34:45.389Z,20
2017-06-09T10:35:55.631Z,20
2017-06-09T10:37:04.949Z,15
2017-06-09T10:38:14.582Z,15
2017-06-09T10:39:24.653Z,15
2017-06-09T10:40:34.629Z,15
2017-06-09T10:41:44.872Z,20
2017-06-09T10:42:54.184Z,20
2017-06-09T10:44:04.416Z,20
2017-06-09T10:45:14.796Z,20
2017-06-09T10:46:24.730Z,20
2017-06-09T10:47:34.974Z,20
2017-06-09T10:48:44.901Z,20
2017-06-09T10:49:54.218Z,20
2017-06-09T10:51:04.300Z,20
2017-06-09T10:52:14.242Z,20
2017-06-09T10:53:24.161Z,20
2017-06-09T10:54:33.773Z,15
2017-06-09T10:55:43.690Z,15
2017-06-09T10:56:52.688Z,20
2017-06-09T10:58:02.015Z,25
2017-06-09T10:59:11.358Z,30
2017-06-09T11:00:21.584Z,30
2017-06-09T11:01:31.534Z,30
2017-06-09T11:02:41.608Z,30
2017-06-09T11:03:51.831Z,25
2017-06-09T11:05:01.447Z,25
2017-06-09T11:06:11.062Z,25
2017-06-09T11:07:20.671Z,25
2017-06-09T11:08:29.498Z,25
2017-06-09T11:09:39.120Z,20
2017-06-09T11:10:49.036Z,20
2017-06-09T11:11:58.969Z,20
2017-06-09T11:13:09.200Z,20
2017-06-09T11:14:19.231Z,20
2017-06-09T11:15:29.472Z,20
2017-06-09T11:16:39.733Z,20
2017-06-09T11:17:49.369Z,15
2017-06-09T11:18:59.621Z,20
2017-06-09T11:20:10.210Z,20
2017-06-09T11:21:19.837Z,20
2017-06-09T11:22:29.762Z,20
2017-06-09T11:23:39.383Z,15
2017-06-09T11:24:49.009Z,10
2017-06-09T11:25:58.783Z,10
2017-06-09T11:27:09.029Z,10
2017-06-09T11:28:18.638Z,10
2017-06-09T11:29:28.556Z,10
2017-06-09T11:30:38.469Z,10
2017-06-09T11:31:48.378Z,10
2017-06-09T11:32:58.605Z,15
2017-06-09T11:34:08.519Z,15
2017-06-09T11:35:18.467Z,15
2017-06-09T11:36:28.090Z,25
2017-06-09T11:37:37.545Z,30
2017-06-09T11:38:47.461Z,25
2017-06-09T11:39:57.074Z,30
2017-06-09T11:41:06.683Z,35
2017-06-09T11:42:16.605Z,30
2017-06-09T11:43:26.942Z,35
2017-06-09T11:44:36.858Z,40
2017-06-09T11:45:46.781Z,45
2017-06-09T11:46:57.023Z,45
2017-06-09T11:48:06.954Z,40
2017-06-09T11:49:16.363Z,40
2017-06-09T11:50:26.285Z,40
2017-06-09T11:51:36.513Z,35
2017-06-09T11:52:46.736Z,30
2017-06-09T11:53:56.354Z,30
2017-06-09T11:55:06.368Z,25
2017-06-09T11:56:16.282Z,20
2017-06-09T11:57:26.514Z,20
2017-06-09T11:58:36.163Z,20
2017-06-09T11:59:46.116Z,20
2017-06-09T12:00:56.187Z,25
2017-06-09T12:02:06.125Z,15
2017-06-09T12:03:15.788Z,15
2017-06-09T12:04:25.742Z,10
2017-06-09T12:05:35.358Z,5
2017-06-09T12:06:45.157Z,5
2017-06-09T12:07:54.802Z,0
2017-06-09T12:09:04.740Z,0
2017-06-09T12:10:14.767Z,0
2017-06-09T12:11:25.041Z,0
2017-06-09T12:12:35.160Z,0
2017-06-09T12:13:45.413Z,0
2017-06-09T12:14:55.087Z,0
2017-06-09T12:16:04.748Z,0
2017-06-09T12:17:14.714Z,0
2017-06-09T12:18:24.812Z,0
2017-06-09T12:19:34.097Z,0
2017-06-09T12:20:44.124Z,0
2017-06-09T12:21:54.058Z,0
2017-06-09T12:23:03.654Z,0
2017-06-09T12:24:14.002Z,0
2017-06-09T12:25:23.614Z,0
2017-06-09T12:26:33.226Z,0
2017-06-09T12:27:43.167Z,5
2017-06-09T12:28:52.511Z,5
2017-06-09T12:30:02.283Z,5
2017-06-09T12:31:11.631Z,5
2017-06-09T12:32:21.263Z,5
2017-06-09T12:33:31.492Z,5
2017-06-09T12:34:41.486Z,0
2017-06-09T12:35:51.771Z,0
2017-06-09T12:37:02.011Z,0
2017-06-09T12:38:11.021Z,5
2017-06-09T12:39:20.959Z,5
2017-06-09T12:40:30.914Z,5
2017-06-09T12:41:40.571Z,5
2017-06-09T12:42:50.187Z,5
2017-06-09T12:43:59.256Z,5
2017-06-09T12:45:09.210Z,5
2017-06-09T12:46:18.858Z,5
2017-06-09T12:47:28.776Z,5
2017-06-09T12:48:37.796Z,5
2017-06-09T12:49:47.430Z,5
2017-06-09T12:50:57.695Z,5
2017-06-09T12:52:07.967Z,5
2017-06-09T12:53:17.654Z,5
2017-06-09T12:54:27.284Z,5
2017-06-09T12:55:36.946Z,5
2017-06-09T12:56:47.205Z,5
2017-06-09T12:57:56.828Z,5
2017-06-09T12:59:06.256Z,10
2017-06-09T13:00:16.169Z,15
2017-06-09T13:01:26.393Z,15
2017-06-09T13:02:36.465Z,20
2017-06-09T13:03:46.431Z,20
2017-06-09T13:04:56.156Z,20
2017-06-09T13:06:06.409Z,20
2017-06-09T13:07:16.672Z,20
2017-06-09T13:08:26.295Z,20
2017-06-09T13:09:36.237Z,20
2017-06-09T13:10:46.640Z,20
2017-06-09T13:11:56.277Z,25
2017-06-09T13:13:06.501Z,25
2017-06-09T13:14:16.757Z,25
2017-06-09T13:15:26.692Z,25
2017-06-09T13:16:36.796Z,25
2017-06-09T13:17:47.034Z,30
2017-06-09T13:18:56.667Z,30
2017-06-09T13:20:06.285Z,35
2017-06-09T13:21:16.219Z,35
2017-06-09T13:22:26.453Z,35
2017-06-09T13:23:36.414Z,35
2017-06-09T13:24:45.747Z,30
2017-06-09T13:25:55.351Z,30
2017-06-09T13:27:05.572Z,25
2017-06-09T13:28:15.628Z,25
2017-06-09T13:29:25.279Z,20
2017-06-09T13:30:35.202Z,20
2017-06-09T13:31:45.129Z,15
2017-06-09T13:32:55.095Z,20
2017-06-09T13:34:05.032Z,15
2017-06-09T13:35:14.683Z,10
2017-06-09T13:36:24.637Z,10
2017-06-09T13:37:34.246Z,15
2017-06-09T13:38:43.854Z,10
2017-06-09T13:39:54.556Z,15
2017-06-09T13:41:04.777Z,10
2017-06-09T13:42:14.401Z,10
2017-06-09T13:43:24.646Z,20
2017-06-09T13:44:34.565Z,15
2017-06-09T13:45:44.611Z,10
2017-06-09T13:46:54.842Z,15
2017-06-09T13:48:04.457Z,15
2017-06-09T13:49:14.685Z,10
2017-06-09T13:50:24.621Z,15
2017-06-09T13:51:34.697Z,15
2017-06-09T13:52:44.325Z,20
2017-06-09T13:53:54.247Z,25
2017-06-09T13:55:04.187Z,15
2017-06-09T13:56:13.799Z,20
2017-06-09T13:57:24.399Z,10
2017-06-09T13:58:34.335Z,15
2017-06-09T13:59:43.973Z,10
2017-06-09T14:00:53.888Z,15
2017-06-09T14:02:03.190Z,20
2017-06-09T14:03:13.244Z,20
2017-06-09T14:04:23.466Z,15
2017-06-09T14:05:33.068Z,15
2017-06-09T14:06:42.982Z,15
2017-06-09T14:07:52.604Z,10
2017-06-09T14:09:03.169Z,10
2017-06-09T14:10:13.087Z,10
2017-06-09T14:11:22.708Z,15
2017-06-09T14:12:32.323Z,10
2017-06-09T14:13:42.249Z,10
2017-06-09T14:14:52.629Z,10
2017-06-09T14:16:01.943Z,10
2017-06-09T14:17:11.859Z,15
2017-06-09T14:18:21.775Z,30
2017-06-09T14:19:31.713Z,35
2017-06-09T14:20:41.796Z,30
2017-06-09T14:21:51.711Z,20
2017-06-09T14:23:01.344Z,15
2017-06-09T14:24:10.975Z,15
2017-06-09T14:25:20.590Z,10
2017-06-09T14:26:30.816Z,10
2017-06-09T14:27:41.041Z,10
2017-06-09T14:28:50.950Z,10
2017-06-09T14:30:00.882Z,10
2017-06-09T14:31:11.104Z,10
2017-06-09T14:32:20.850Z,10
2017-06-09T14:33:30.758Z,10
2017-06-09T14:34:40.678Z,10
2017-06-09T14:35:50.282Z,10
2017-06-09T14:37:00.228Z,10
2017-06-09T14:38:10.249Z,15
2017-06-09T14:39:19.855Z,15
2017-06-09T14:40:29.784Z,15
2017-06-09T14:41:39.114Z,15
2017-06-09T14:42:49.037Z,15
2017-06-09T14:43:58.762Z,5
2017-06-09T14:45:08.694Z,5
2017-06-09T14:46:18.621Z,5
2017-06-09T14:47:28.540Z,5
2017-06-09T14:48:38.453Z,5
2017-06-09T14:49:48.474Z,10
2017-06-09T14:50:58.392Z,10
2017-06-09T14:52:08.312Z,15
2017-06-09T14:53:18.242Z,20
2017-06-09T14:54:27.880Z,25
2017-06-09T14:55:37.618Z,20
2017-06-09T14:56:47.842Z,15
2017-06-09T14:57:57.770Z,20
2017-06-09T14:59:07.386Z,15
2017-06-09T15:00:16.681Z,20
2017-06-09T15:01:26.641Z,15
2017-06-09T15:02:36.547Z,15
2017-06-09T15:03:46.474Z,20
2017-06-09T15:04:56.084Z,15
2017-06-09T15:06:06.304Z,10
2017-06-09T15:07:15.916Z,10
2017-06-09T15:08:25.848Z,10
2017-06-09T15:09:35.456Z,10
2017-06-09T15:10:45.375Z,10
2017-06-09T15:11:55.299Z,10
2017-06-09T15:13:05.669Z,15
2017-06-09T15:14:15.300Z,15
2017-06-09T15:15:24.290Z,15
2017-06-09T15:16:33.286Z,10
2017-06-09T15:17:43.227Z,10
2017-06-09T15:18:53.258Z,10
2017-06-09T15:20:02.876Z,10
2017-06-09T15:21:12.186Z,10
2017-06-09T15:22:22.417Z,10
2017-06-09T15:23:32.047Z,10
2017-06-09T15:24:41.817Z,10
2017-06-09T15:25:51.742Z,10
2017-06-09T15:27:01.352Z,10
2017-06-09T15:28:11.272Z,10
2017-06-09T15:29:20.569Z,10
2017-06-09T15:30:30.868Z,10
2017-06-09T15:31:40.795Z,5
2017-06-09T15:32:51.017Z,5
2017-06-09T15:34:00.936Z,5
2017-06-09T15:35:11.169Z,5
2017-06-09T15:36:21.751Z,5
2017-06-09T15:37:31.054Z,5
2017-06-09T15:38:40.662Z,5
2017-06-09T15:39:50.275Z,5
2017-06-09T15:40:59.876Z,5
2017-06-09T15:42:09.950Z,10
2017-06-09T15:43:20.189Z,10
2017-06-09T15:44:30.111Z,10
2017-06-09T15:45:40.032Z,10
2017-06-09T15:46:50.259Z,5
2017-06-09T15:48:00.334Z,5
2017-06-09T15:49:10.553Z,5
2017-06-09T15:50:20.468Z,5
2017-06-09T15:51:30.700Z,5
2017-06-09T15:52:40.945Z,5
2017-06-09T15:53:50.735Z,10
2017-06-09T15:55:00.349Z,10
2017-06-09T15:56:10.260Z,10
2017-06-09T15:57:20.504Z,10
2017-06-09T15:58:30.427Z,10
2017-06-09T15:59:40.201Z,10
2017-06-09T16:00:50.139Z,10
2017-06-09T16:01:59.757Z,10
2017-06-09T16:03:08.753Z,10
2017-06-09T16:04:18.663Z,10
2017-06-09T16:05:28.369Z,10
2017-06-09T16:06:38.276Z,10
2017-06-09T16:07:47.585Z,10
2017-06-09T16:08:57.496Z,10
2017-06-09T16:10:07.739Z,10
2017-06-09T16:11:17.333Z,5
2017-06-09T16:12:27.267Z,10
2017-06-09T16:13:37.173Z,10
2017-06-09T16:14:47.086Z,10
2017-06-09T16:15:56.689Z,5
2017-06-09T16:17:07.065Z,5
2017-06-09T16:18:17.291Z,5
2017-06-09T16:19:27.502Z,5
2017-06-09T16:20:37.726Z,10
2017-06-09T16:21:47.334Z,10
2017-06-09T16:22:57.401Z,10
2017-06-09T16:24:07.318Z,10
2017-06-09T16:25:16.944Z,10
2017-06-09T16:26:27.173Z,10
2017-06-09T16:27:36.771Z,5
2017-06-09T16:28:47.162Z,5
2017-06-09T16:29:57.390Z,10
2017-06-09T16:31:07.337Z,5
2017-06-09T16:32:16.952Z,5
2017-06-09T16:33:26.563Z,5
2017-06-09T16:34:36.934Z,5
2017-06-09T16:35:46.580Z,5
2017-06-09T16:36:56.176Z,5
2017-06-09T16:38:05.804Z,5
2017-06-09T16:39:15.729Z,5
2017-06-09T16:40:26.095Z,5
2017-06-09T16:41:36.034Z,5
2017-06-09T16:42:45.949Z,5
2017-06-09T16:43:55.283Z,5
2017-06-09T16:45:05.204Z,10
2017-06-09T16:46:15.143Z,10
2017-06-09T16:47:24.768Z,10
2017-06-09T16:48:34.077Z,10
2017-06-09T16:49:44.017Z,10
2017-06-09T16:50:53.934Z,10
2017-06-09T16:52:03.948Z,10
2017-06-09T16:53:13.865Z,10
2017-06-09T16:54:23.792Z,10
2017-06-09T16:55:33.090Z,15